createdAt,value
2023-03-21T00:01:26.445Z,98442.81
2023-03-21T00:03:33.237Z,98441.22
2023-03-21T00:05:42.371Z,98441.59
2023-03-21T00:07:47.347Z,98443.50
2023-03-21T00:09:53.661Z,98451.34
2023-03-21T00:12:07.477Z,98441.19
2023-03-21T00:14:14.560Z,98444.09
2023-03-21T00:16:28.126Z,98444.00
2023-03-21T00:18:36.841Z,98431.88
2023-03-21T00:20:42.174Z,98436.81
2023-03-21T00:22:46.777Z,98432.59
2023-03-21T00:24:52.298Z,98437.56
2023-03-21T00:27:06.068Z,98444.13
2023-03-21T00:29:18.061Z,98439.69
2023-03-21T00:31:24.773Z,98440.50
2023-03-21T00:33:30.222Z,98444.75
2023-03-21T00:35:57.805Z,98436.09
2023-03-21T00:38:00.102Z,98431.03
2023-03-21T00:40:08.783Z,98435.19
2023-03-21T00:42:15.508Z,98432.81
2023-03-21T00:44:25.766Z,98422.00
2023-03-21T00:46:43.982Z,98429.97
2023-03-21T00:48:51.954Z,98426.78
2023-03-21T00:50:59.485Z,98420.59
2023-03-21T00:53:04.499Z,98417.97
2023-03-21T00:55:10.914Z,98412.06
2023-03-21T00:57:16.185Z,98404.53
2023-03-21T00:59:24.264Z,98410.59
2023-03-21T01:01:32.090Z,98405.84
2023-03-21T01:03:42.682Z,98407.69
2023-03-21T01:06:07.194Z,98409.78
2023-03-21T01:08:25.084Z,98396.94
2023-03-21T01:10:33.054Z,98396.38
2023-03-21T01:12:37.892Z,98396.38
2023-03-21T01:14:45.333Z,98402.25
2023-03-21T01:16:50.616Z,98393.63
2023-03-21T01:18:56.227Z,98388.34
2023-03-21T01:21:02.812Z,98396.66
2023-03-21T01:23:07.683Z,98399.06
2023-03-21T01:25:22.405Z,98391.00
2023-03-21T01:27:28.103Z,98399.59
2023-03-21T01:29:32.895Z,98396.03
2023-03-21T01:31:40.428Z,98395.97
2023-03-21T01:33:46.116Z,98395.84
2023-03-21T01:35:57.648Z,98399.22
2023-03-21T01:38:11.650Z,98387.72
2023-03-21T01:40:25.502Z,98383.34
2023-03-21T01:42:37.882Z,98387.59
2023-03-21T01:44:56.788Z,98380.63
2023-03-21T01:47:13.031Z,98384.94
2023-03-21T01:49:34.311Z,98387.44
2023-03-21T01:51:53.710Z,98382.13
2023-03-21T01:53:57.768Z,98379.47
2023-03-21T01:56:08.311Z,98380.31
2023-03-21T01:58:33.675Z,98379.47
2023-03-21T02:01:00.619Z,98369.88
2023-03-21T02:03:29.603Z,98375.84
2023-03-21T02:06:02.319Z,98373.31
2023-03-21T02:08:14.207Z,98379.41
2023-03-21T02:10:20.158Z,98368.34
2023-03-21T02:12:29.678Z,98364.25
2023-03-21T02:14:37.639Z,98366.78
2023-03-21T02:17:03.860Z,98370.16
2023-03-21T02:19:41.539Z,98365.94
2023-03-21T02:22:14.940Z,98367.09
2023-03-21T02:25:08.314Z,98362.13
2023-03-21T02:27:22.098Z,98367.53
2023-03-21T02:29:53.233Z,98362.44
2023-03-21T02:32:20.420Z,98365.22
2023-03-21T02:34:55.439Z,98366.25
2023-03-21T02:37:28.918Z,98373.28
2023-03-21T02:39:52.561Z,98370.66
2023-03-21T02:42:09.548Z,98366.31
2023-03-21T02:44:23.966Z,98367.91
2023-03-21T02:46:42.950Z,98367.78
2023-03-21T02:48:57.595Z,98363.41
2023-03-21T02:51:04.856Z,98361.59
2023-03-21T02:53:16.001Z,98369.22
2023-03-21T02:55:27.225Z,98371.88
2023-03-21T02:57:43.282Z,98364.63
2023-03-21T02:59:55.734Z,98364.91
2023-03-21T03:02:10.172Z,98362.50
2023-03-21T03:04:23.053Z,98354.72
2023-03-21T03:06:37.064Z,98359.97
2023-03-21T03:09:02.220Z,98355.13
2023-03-21T03:11:21.233Z,98357.69
2023-03-21T03:13:38.625Z,98350.47
2023-03-21T03:15:52.602Z,98351.88
2023-03-21T03:18:03.394Z,98345.56
2023-03-21T03:20:31.258Z,98354.03
2023-03-21T03:22:45.585Z,98346.88
2023-03-21T03:25:04.778Z,98347.53
2023-03-21T03:27:22.893Z,98349.09
2023-03-21T03:29:31.663Z,98344.56
2023-03-21T03:31:39.340Z,98343.59
2023-03-21T03:33:49.408Z,98353.81
2023-03-21T03:36:05.570Z,98347.75
2023-03-21T03:38:16.307Z,98348.63
2023-03-21T03:40:28.949Z,98352.91
2023-03-21T03:42:47.477Z,98347.56
2023-03-21T03:45:01.519Z,98334.63
2023-03-21T03:47:17.537Z,98340.69
2023-03-21T03:49:35.799Z,98339.75
2023-03-21T03:51:46.754Z,98340.69
2023-03-21T03:54:14.348Z,98338.97
2023-03-21T03:56:23.557Z,98337.41
2023-03-21T03:58:43.057Z,98337.59
2023-03-21T04:00:50.610Z,98335.25
2023-03-21T04:02:55.174Z,98340.78
2023-03-21T04:05:04.427Z,98339.19
2023-03-21T04:07:09.316Z,98333.22
2023-03-21T04:09:21.954Z,98332.34
2023-03-21T04:11:33.586Z,98330.72
2023-03-21T04:13:38.630Z,98334.25
2023-03-21T04:15:48.544Z,98336.91
2023-03-21T04:17:54.670Z,98333.66
2023-03-21T04:20:10.921Z,98343.22
2023-03-21T04:22:19.340Z,98332.13
2023-03-21T04:24:24.989Z,98325.28
2023-03-21T04:26:34.138Z,98334.94
2023-03-21T04:29:00.598Z,98333.44
2023-03-21T04:31:26.487Z,98332.63
2023-03-21T04:33:40.216Z,98334.44
2023-03-21T04:35:46.159Z,98334.44
2023-03-21T04:37:52.512Z,98339.66
2023-03-21T04:39:57.385Z,98338.88
2023-03-21T04:42:05.191Z,98345.22
2023-03-21T04:44:10.794Z,98339.28
2023-03-21T04:46:17.038Z,98340.13
2023-03-21T04:48:24.745Z,98342.81
2023-03-21T04:50:30.076Z,98344.72
2023-03-21T04:52:36.216Z,98344.72
2023-03-21T04:54:40.969Z,98342.03
2023-03-21T04:56:45.855Z,98336.84
2023-03-21T04:58:53.845Z,98340.19
2023-03-21T05:00:58.768Z,98336.69
2023-03-21T05:03:05.211Z,98335.72
2023-03-21T05:05:12.360Z,98331.38
2023-03-21T05:07:17.349Z,98326.97
2023-03-21T05:09:22.622Z,98329.72
2023-03-21T05:11:27.495Z,98327.06
2023-03-21T05:13:32.465Z,98333.03
2023-03-21T05:15:40.005Z,98339.97
2023-03-21T05:17:45.033Z,98339.03
2023-03-21T05:19:50.670Z,98337.47
2023-03-21T05:21:55.566Z,98352.28
2023-03-21T05:24:04.375Z,98345.41
2023-03-21T05:26:11.411Z,98353.44
2023-03-21T05:28:22.963Z,98349.13
2023-03-21T05:30:27.777Z,98348.38
2023-03-21T05:32:39.225Z,98345.56
2023-03-21T05:34:47.236Z,98349.81
2023-03-21T05:36:52.446Z,98348.13
2023-03-21T05:38:59.036Z,98353.09
2023-03-21T05:41:04.277Z,98347.16
2023-03-21T05:43:10.321Z,98354.03
2023-03-21T05:45:15.348Z,98351.25
2023-03-21T05:47:20.573Z,98351.25
2023-03-21T05:49:28.568Z,98349.53
2023-03-21T05:51:37.167Z,98349.31
2023-03-21T05:53:42.038Z,98358.78
2023-03-21T05:55:46.971Z,98358.72
2023-03-21T05:58:07.408Z,98358.09
2023-03-21T06:00:13.117Z,98364.38
2023-03-21T06:02:20.929Z,98356.56
2023-03-21T06:04:29.649Z,98362.34
2023-03-21T06:06:34.794Z,98369.28
2023-03-21T06:08:40.338Z,98363.94
2023-03-21T06:10:45.158Z,98361.38
2023-03-21T06:12:50.981Z,98360.25
2023-03-21T06:15:08.966Z,98359.16
2023-03-21T06:17:48.769Z,98356.28
2023-03-21T06:19:57.340Z,98352.56
2023-03-21T06:22:11.153Z,98354.13
2023-03-21T06:24:20.631Z,98354.75
2023-03-21T06:26:25.766Z,98357.25
2023-03-21T06:28:31.999Z,98362.19
2023-03-21T06:30:37.195Z,98365.38
2023-03-21T06:32:49.690Z,98351.28
2023-03-21T06:34:58.511Z,98356.34
2023-03-21T06:37:04.105Z,98351.84
2023-03-21T06:39:11.124Z,98354.88
2023-03-21T06:41:18.994Z,98355.47
2023-03-21T06:43:34.132Z,98352.66
2023-03-21T06:45:41.454Z,98351.56
2023-03-21T06:47:48.702Z,98345.09
2023-03-21T06:50:09.556Z,98350.19
2023-03-21T06:52:19.363Z,98353.59
2023-03-21T06:54:24.218Z,98350.00
2023-03-21T06:56:35.166Z,98350.75
2023-03-21T06:58:42.117Z,98343.53
2023-03-21T07:00:54.040Z,98347.41
2023-03-21T07:02:59.177Z,98346.31
2023-03-21T07:05:04.111Z,98347.66
2023-03-21T07:07:11.714Z,98346.63
2023-03-21T07:09:17.949Z,98351.63
2023-03-21T07:11:23.248Z,98349.38
2023-03-21T07:13:28.096Z,98344.72
2023-03-21T07:15:41.465Z,98344.56
2023-03-21T07:17:46.609Z,98346.19
2023-03-21T07:19:51.491Z,98340.81
2023-03-21T07:21:57.470Z,98345.19
2023-03-21T07:24:04.963Z,98342.63
2023-03-21T07:26:10.611Z,98339.44
2023-03-21T07:28:15.535Z,98355.97
2023-03-21T07:30:21.194Z,98349.94
2023-03-21T07:32:30.121Z,98349.38
2023-03-21T07:34:36.180Z,98353.88
2023-03-21T07:36:41.896Z,98358.59
2023-03-21T07:38:48.322Z,98362.28
2023-03-21T07:41:02.050Z,98359.72
2023-03-21T07:43:10.727Z,98357.16
2023-03-21T07:45:22.047Z,98353.19
2023-03-21T07:47:27.061Z,98359.19
2023-03-21T07:49:32.126Z,98354.84
2023-03-21T07:51:37.857Z,98351.25
2023-03-21T07:53:43.968Z,98351.91
2023-03-21T07:55:52.867Z,98348.22
2023-03-21T07:58:00.321Z,98351.56
2023-03-21T08:00:06.378Z,98348.88
2023-03-21T08:02:18.954Z,98343.22
2023-03-21T08:04:23.859Z,98348.16
2023-03-21T08:06:32.596Z,98350.59
2023-03-21T08:08:37.525Z,98345.81
2023-03-21T08:10:42.437Z,98349.41
2023-03-21T08:12:47.542Z,98347.13
2023-03-21T08:14:55.104Z,98345.50
2023-03-21T08:17:00.063Z,98344.59
2023-03-21T08:19:04.936Z,98349.25
2023-03-21T08:21:10.791Z,98347.28
2023-03-21T08:23:16.548Z,98346.91
2023-03-21T08:25:26.107Z,98354.72
2023-03-21T08:27:31.013Z,98346.75
2023-03-21T08:29:40.548Z,98339.06
2023-03-21T08:31:47.964Z,98330.69
2023-03-21T08:33:54.949Z,98335.03
2023-03-21T08:36:02.654Z,98327.19
2023-03-21T08:38:08.460Z,98325.75
2023-03-21T08:40:16.298Z,98325.66
2023-03-21T08:42:22.046Z,98323.88
2023-03-21T08:44:27.138Z,98319.38
2023-03-21T08:46:32.237Z,98318.84
2023-03-21T08:48:40.230Z,98323.19
2023-03-21T08:50:45.231Z,98319.59
2023-03-21T08:52:51.145Z,98322.69
2023-03-21T08:54:56.153Z,98320.59
2023-03-21T08:57:01.165Z,98323.72
2023-03-21T08:59:05.989Z,98316.28
2023-03-21T09:01:15.817Z,98321.91
2023-03-21T09:03:20.780Z,98317.50
2023-03-21T09:05:28.720Z,98319.63
2023-03-21T09:07:34.157Z,98320.13
2023-03-21T09:09:39.059Z,98319.72
2023-03-21T09:11:43.970Z,98316.50
2023-03-21T09:13:48.738Z,98313.47
2023-03-21T09:15:54.224Z,98313.03
2023-03-21T09:18:13.389Z,98314.09
2023-03-21T09:20:22.739Z,98311.91
2023-03-21T09:22:30.897Z,98312.25
2023-03-21T09:24:35.885Z,98306.91
2023-03-21T09:26:40.663Z,98302.09
2023-03-21T09:28:47.513Z,98292.31
2023-03-21T09:30:52.529Z,98302.75
2023-03-21T09:32:57.361Z,98303.53
2023-03-21T09:35:02.305Z,98296.75
2023-03-21T09:37:13.455Z,98301.25
2023-03-21T09:39:21.043Z,98300.91
2023-03-21T09:41:39.681Z,98291.56
2023-03-21T09:43:57.449Z,98296.78
2023-03-21T09:46:08.337Z,98289.88
2023-03-21T09:48:30.357Z,98292.81
2023-03-21T09:50:38.426Z,98287.00
2023-03-21T09:52:50.747Z,98293.00
2023-03-21T09:54:58.788Z,98293.22
2023-03-21T09:57:15.076Z,98287.72
2023-03-21T09:59:33.226Z,98289.00
2023-03-21T10:01:42.120Z,98283.09
2023-03-21T10:03:47.851Z,98284.69
2023-03-21T10:05:57.554Z,98284.66
2023-03-21T10:08:08.088Z,98281.94
2023-03-21T10:10:20.829Z,98270.44
2023-03-21T10:12:30.649Z,98268.84
2023-03-21T10:14:40.389Z,98262.31
2023-03-21T10:16:47.763Z,98261.03
2023-03-21T10:18:53.554Z,98269.72
2023-03-21T10:20:59.390Z,98261.75
2023-03-21T10:23:07.757Z,98259.84
2023-03-21T10:25:21.335Z,98254.97
2023-03-21T10:27:26.231Z,98262.63
2023-03-21T10:29:37.241Z,98248.16
2023-03-21T10:31:44.859Z,98242.75
2023-03-21T10:33:52.989Z,98257.06
2023-03-21T10:36:05.078Z,98249.09
2023-03-21T10:38:14.992Z,98245.06
2023-03-21T10:40:22.796Z,98237.84
2023-03-21T10:42:29.725Z,98229.28
2023-03-21T10:44:36.282Z,98237.22
2023-03-21T10:46:41.582Z,98234.78
2023-03-21T10:48:48.527Z,98238.53
2023-03-21T10:50:57.657Z,98229.16
2023-03-21T10:53:03.873Z,98228.31
2023-03-21T10:55:21.883Z,98231.78
2023-03-21T10:57:29.747Z,98226.50
2023-03-21T10:59:42.726Z,98229.97
2023-03-21T11:01:52.708Z,98223.75
2023-03-21T11:04:01.000Z,98218.72
2023-03-21T11:06:10.218Z,98222.44
2023-03-21T11:08:19.246Z,98223.06
2023-03-21T11:10:31.938Z,98218.03
2023-03-21T11:12:41.690Z,98219.22
2023-03-21T11:14:48.411Z,98209.78
2023-03-21T11:16:53.994Z,98218.03
2023-03-21T11:19:03.237Z,98214.44
2023-03-21T11:21:11.321Z,98212.09
2023-03-21T11:23:16.779Z,98213.47
2023-03-21T11:25:25.944Z,98212.53
2023-03-21T11:27:31.859Z,98203.28
2023-03-21T11:29:42.761Z,98202.25
2023-03-21T11:31:47.753Z,98203.16
2023-03-21T11:33:57.001Z,98202.47
2023-03-21T11:36:07.273Z,98197.47
2023-03-21T11:38:28.734Z,98196.28
2023-03-21T11:40:34.807Z,98193.72
2023-03-21T11:42:46.771Z,98180.88
2023-03-21T11:45:03.296Z,98187.03
2023-03-21T11:47:08.692Z,98192.59
2023-03-21T11:49:13.591Z,98184.56
2023-03-21T11:51:31.802Z,98177.63
2023-03-21T11:53:42.808Z,98170.38
2023-03-21T11:56:02.844Z,98162.09
2023-03-21T11:58:33.629Z,98166.28
2023-03-21T12:00:49.198Z,98160.19
2023-03-21T12:03:13.961Z,98161.78
2023-03-21T12:05:22.327Z,98159.25
2023-03-21T12:07:42.883Z,98161.38
2023-03-21T12:09:53.826Z,98160.41
2023-03-21T12:12:10.513Z,98147.38
2023-03-21T12:14:24.003Z,98150.94
2023-03-21T12:16:44.000Z,98146.91
2023-03-21T12:19:04.514Z,98145.84
2023-03-21T12:21:14.015Z,98146.41
2023-03-21T12:23:45.585Z,98142.03
2023-03-21T12:25:58.066Z,98143.28
2023-03-21T12:28:16.942Z,98130.06
2023-03-21T12:30:36.387Z,98134.56
2023-03-21T12:32:58.474Z,98125.81
2023-03-21T12:35:24.228Z,98121.72
2023-03-21T12:37:37.150Z,98118.78
2023-03-21T12:39:43.652Z,98108.59
2023-03-21T12:41:58.129Z,98108.47
2023-03-21T12:44:07.537Z,98106.78
2023-03-21T12:46:21.067Z,98105.25
2023-03-21T12:48:36.664Z,98104.09
2023-03-21T12:50:43.047Z,98109.56
2023-03-21T12:52:53.069Z,98111.22
2023-03-21T12:55:02.687Z,98107.31
2023-03-21T12:57:12.010Z,98107.41
2023-03-21T12:59:25.720Z,98100.09
2023-03-21T13:01:32.892Z,98096.81
2023-03-21T13:03:45.401Z,98090.84
2023-03-21T13:05:56.095Z,98087.25
2023-03-21T13:08:07.244Z,98081.34
2023-03-21T13:10:20.991Z,98072.94
2023-03-21T13:12:38.510Z,98069.41
2023-03-21T13:14:55.849Z,98071.22
2023-03-21T13:17:05.163Z,98068.13
2023-03-21T13:19:22.713Z,98077.16
2023-03-21T13:21:37.220Z,98073.63
2023-03-21T13:23:42.644Z,98070.53
2023-03-21T13:25:49.981Z,98064.22
2023-03-21T13:27:56.540Z,98060.91
2023-03-21T13:30:06.580Z,98057.97
2023-03-21T13:32:18.954Z,98065.44
2023-03-21T13:34:28.228Z,98067.44
2023-03-21T13:36:34.496Z,98063.84
2023-03-21T13:38:40.762Z,98065.25
2023-03-21T13:40:50.710Z,98062.63
2023-03-21T13:42:59.898Z,98059.88
2023-03-21T13:45:08.521Z,98050.09
2023-03-21T13:47:47.369Z,98052.72
2023-03-21T13:50:24.383Z,98046.28
2023-03-21T13:52:31.820Z,98047.00
2023-03-21T13:54:51.164Z,98036.41
2023-03-21T13:57:01.278Z,98037.91
2023-03-21T13:59:07.083Z,98025.75
2023-03-21T14:01:36.061Z,98028.19
2023-03-21T14:03:41.061Z,98031.53
2023-03-21T14:05:51.676Z,98038.84
2023-03-21T14:08:12.563Z,98031.91
2023-03-21T14:10:23.190Z,98034.66
2023-03-21T14:12:30.483Z,98030.97
2023-03-21T14:14:40.724Z,98028.78
2023-03-21T14:16:47.246Z,98026.28
2023-03-21T14:18:56.689Z,98026.13
2023-03-21T14:21:03.596Z,98018.75
2023-03-21T14:23:19.374Z,98021.50
2023-03-21T14:25:31.240Z,98013.06
2023-03-21T14:27:46.341Z,98016.66
2023-03-21T14:29:53.493Z,98008.84
2023-03-21T14:32:00.300Z,98012.19
2023-03-21T14:34:07.158Z,98005.44
2023-03-21T14:36:16.830Z,98004.22
2023-03-21T14:38:26.565Z,98005.59
2023-03-21T14:40:32.332Z,98002.53
2023-03-21T14:42:38.088Z,97999.13
2023-03-21T14:44:54.506Z,97995.78
2023-03-21T14:47:04.160Z,97996.44
2023-03-21T14:49:17.013Z,98003.53
2023-03-21T14:51:24.980Z,98002.47
2023-03-21T14:53:34.661Z,98001.13
2023-03-21T14:55:45.484Z,98003.69
2023-03-21T14:57:51.525Z,98007.91
2023-03-21T14:59:59.530Z,98007.09
2023-03-21T15:02:08.600Z,98001.38
2023-03-21T15:04:16.917Z,97991.31
2023-03-21T15:06:21.971Z,97993.84
2023-03-21T15:08:28.802Z,97990.16
2023-03-21T15:10:36.404Z,97992.09
2023-03-21T15:12:41.539Z,97990.47
2023-03-21T15:14:46.416Z,97988.31
2023-03-21T15:16:51.798Z,97986.78
2023-03-21T15:18:57.049Z,97984.75
2023-03-21T15:21:06.250Z,97992.44
2023-03-21T15:23:17.125Z,97986.78
2023-03-21T15:25:25.363Z,97987.69
2023-03-21T15:27:35.955Z,97987.03
2023-03-21T15:29:42.111Z,97984.06
2023-03-21T15:31:50.255Z,97983.59
2023-03-21T15:33:56.678Z,97985.31
2023-03-21T15:36:03.067Z,97979.00
2023-03-21T15:38:07.959Z,97979.59
2023-03-21T15:40:22.661Z,97978.53
2023-03-21T15:42:33.120Z,97983.97
2023-03-21T15:44:38.235Z,97978.78
2023-03-21T15:46:44.463Z,97982.84
2023-03-21T15:48:49.517Z,97976.69
2023-03-21T15:50:59.845Z,97978.47
2023-03-21T15:53:08.921Z,97977.97
2023-03-21T15:55:26.532Z,97972.53
2023-03-21T15:57:38.197Z,97970.97
2023-03-21T15:59:48.016Z,97987.59
2023-03-21T16:01:53.596Z,97982.97
2023-03-21T16:04:01.012Z,97984.28
2023-03-21T16:06:18.766Z,97986.38
2023-03-21T16:08:25.766Z,97986.72
2023-03-21T16:10:33.753Z,97987.56
2023-03-21T16:12:41.212Z,97996.72
2023-03-21T16:14:47.449Z,97992.09
2023-03-21T16:16:53.004Z,97992.28
2023-03-21T16:19:01.343Z,97989.66
2023-03-21T16:21:09.400Z,97994.72
2023-03-21T16:23:17.508Z,97995.75
2023-03-21T16:25:23.080Z,98002.47
2023-03-21T16:27:27.876Z,98001.72
2023-03-21T16:29:35.450Z,97997.53
2023-03-21T16:31:40.493Z,98000.69
2023-03-21T16:33:45.874Z,97996.91
2023-03-21T16:35:52.078Z,97998.81
2023-03-21T16:37:57.030Z,97996.91
2023-03-21T16:40:02.129Z,97998.06
2023-03-21T16:42:06.998Z,97999.81
2023-03-21T16:44:12.932Z,98004.88
2023-03-21T16:46:23.243Z,98004.28
2023-03-21T16:48:28.305Z,98006.56
2023-03-21T16:50:36.338Z,98010.78
2023-03-21T16:52:41.272Z,98008.38
2023-03-21T16:54:46.306Z,98013.63
2023-03-21T16:56:52.238Z,98011.47
2023-03-21T16:58:57.834Z,98013.19
2023-03-21T17:01:03.034Z,98013.06
2023-03-21T17:03:19.591Z,98022.03
2023-03-21T17:05:25.821Z,98025.03
2023-03-21T17:07:30.635Z,98030.19
2023-03-21T17:09:35.671Z,98031.22
2023-03-21T17:11:41.707Z,98031.69
2023-03-21T17:13:46.982Z,98031.25
2023-03-21T17:15:51.821Z,98036.41
2023-03-21T17:17:57.133Z,98037.75
2023-03-21T17:20:06.446Z,98043.19
2023-03-21T17:22:14.479Z,98044.41
2023-03-21T17:24:19.692Z,98047.50
2023-03-21T17:26:25.830Z,98054.59
2023-03-21T17:28:30.724Z,98057.19
2023-03-21T17:30:40.334Z,98061.47
2023-03-21T17:32:45.463Z,98069.28
2023-03-21T17:34:53.345Z,98066.13
2023-03-21T17:37:01.764Z,98067.38
2023-03-21T17:39:08.781Z,98073.75
2023-03-21T17:41:14.803Z,98073.34
2023-03-21T17:43:23.410Z,98070.06
2023-03-21T17:45:28.558Z,98078.38
2023-03-21T17:47:35.621Z,98068.88
2023-03-21T17:49:40.619Z,98075.84
2023-03-21T17:51:47.129Z,98077.63
2023-03-21T17:53:54.625Z,98076.72
2023-03-21T17:55:59.478Z,98073.91
2023-03-21T17:58:05.659Z,98078.47
2023-03-21T18:00:16.874Z,98074.47
2023-03-21T18:02:21.705Z,98068.41
2023-03-21T18:04:27.233Z,98063.66
2023-03-21T18:06:32.844Z,98056.50
2023-03-21T18:08:37.827Z,98060.06
2023-03-21T18:10:45.446Z,98055.88
2023-03-21T18:12:52.766Z,98056.63
2023-03-21T18:14:57.690Z,98057.56
2023-03-21T18:17:02.870Z,98060.84
2023-03-21T18:19:07.996Z,98062.81
2023-03-21T18:21:12.634Z,98063.34
2023-03-21T18:23:18.864Z,98056.91
2023-03-21T18:25:23.919Z,98060.28
2023-03-21T18:27:33.118Z,98053.00
2023-03-21T18:30:22.138Z,98049.44
2023-03-21T18:32:06.855Z,98054.47
2023-03-21T18:34:12.828Z,98059.72
2023-03-21T18:36:25.620Z,98063.19
2023-03-21T18:38:31.365Z,98058.50
2023-03-21T18:40:36.344Z,98057.19
2023-03-21T18:43:39.476Z,98062.25
2023-03-21T18:45:12.119Z,98060.94
2023-03-21T18:47:17.607Z,98059.00
2023-03-21T18:50:06.071Z,98059.72
2023-03-21T18:51:53.207Z,98071.50
2023-03-21T18:53:58.417Z,98066.50
2023-03-21T18:56:03.182Z,98063.81
2023-03-21T18:58:10.736Z,98065.47
2023-03-21T19:00:23.277Z,98072.47
2023-03-21T19:02:28.291Z,98073.50
2023-03-21T19:04:33.786Z,98078.72
2023-03-21T19:06:38.687Z,98080.16
2023-03-21T19:08:44.611Z,98087.81
2023-03-21T19:10:51.235Z,98081.50
2023-03-21T19:12:57.164Z,98073.47
2023-03-21T19:15:05.997Z,98066.16
2023-03-21T19:19:36.136Z,98065.31
2023-03-21T19:21:40.794Z,98063.81
2023-03-21T19:26:10.976Z,98064.56
2023-03-21T19:28:16.043Z,98068.88
2023-03-21T19:30:23.356Z,98062.69
2023-03-21T19:32:28.407Z,98060.84
2023-03-21T19:34:35.678Z,98060.72
2023-03-21T19:36:45.582Z,98064.03
2023-03-21T19:38:54.572Z,98060.38
2023-03-21T19:41:01.644Z,98051.03
2023-03-21T19:43:31.255Z,98048.31
2023-03-21T19:45:34.092Z,98051.78
2023-03-21T19:47:39.031Z,98055.03
2023-03-21T19:52:09.895Z,98054.09
2023-03-21T19:54:14.849Z,98060.19
2023-03-21T19:56:23.168Z,98060.28
2023-03-21T19:58:31.401Z,98064.69
2023-03-21T20:00:39.530Z,98066.28
2023-03-21T20:02:45.512Z,98072.53
2023-03-21T20:04:50.736Z,98071.78
2023-03-21T20:06:58.129Z,98071.84
2023-03-21T20:09:47.245Z,98076.88
2023-03-21T20:11:27.940Z,98075.72
2023-03-21T20:13:33.000Z,98074.13
2023-03-21T20:15:48.107Z,98073.09
2023-03-21T20:17:53.756Z,98077.69
2023-03-21T20:20:00.182Z,98071.50
2023-03-21T20:22:16.059Z,98065.19
2023-03-21T20:24:24.972Z,98071.81
2023-03-21T20:26:31.061Z,98068.09
2023-03-21T20:28:38.113Z,98068.66
2023-03-21T20:30:50.872Z,98065.88
2023-03-21T20:32:56.001Z,98062.22
2023-03-21T20:35:13.722Z,98067.28
2023-03-21T20:37:22.704Z,98067.09
2023-03-21T20:39:29.770Z,98062.50
2023-03-21T20:41:34.860Z,98053.06
2023-03-21T20:46:09.388Z,98056.03
2023-03-21T20:48:14.396Z,98069.31
2023-03-21T20:50:22.024Z,98075.75
2023-03-21T20:52:54.831Z,98079.94
2023-03-21T20:54:54.028Z,98098.56
2023-03-21T20:56:58.950Z,98105.44
2023-03-21T20:59:16.737Z,98107.69
2023-03-21T21:01:29.025Z,98120.03
2023-03-21T21:03:38.410Z,98118.66
2023-03-21T21:05:46.592Z,98114.09
2023-03-21T21:07:52.965Z,98108.31
2023-03-21T21:09:57.881Z,98111.66
2023-03-21T21:12:07.005Z,98120.78
2023-03-21T21:14:15.373Z,98115.31
2023-03-21T21:16:20.570Z,98105.31
2023-03-21T21:18:28.644Z,98111.91
2023-03-21T21:20:35.627Z,98119.47
2023-03-21T21:22:45.249Z,98117.81
2023-03-21T21:24:51.409Z,98128.16
2023-03-21T21:26:56.265Z,98129.88
2023-03-21T21:29:01.697Z,98119.59
2023-03-21T21:31:12.584Z,98122.19
2023-03-21T21:33:18.028Z,98114.78
2023-03-21T21:35:26.296Z,98117.56
2023-03-21T21:37:34.050Z,98114.94
2023-03-21T21:39:40.368Z,98116.78
2023-03-21T21:41:46.048Z,98115.88
2023-03-21T21:43:51.083Z,98117.56
2023-03-21T21:45:56.655Z,98118.34
2023-03-21T21:48:02.180Z,98113.94
2023-03-21T21:50:07.851Z,98115.63
2023-03-21T21:52:24.261Z,98120.09
2023-03-21T21:54:30.317Z,98110.41
2023-03-21T21:56:37.845Z,98112.94
2023-03-21T21:58:48.794Z,98107.63
2023-03-21T22:00:54.492Z,98110.13
2023-03-21T22:03:00.738Z,98107.44
2023-03-21T22:05:05.811Z,98099.50
2023-03-21T22:07:14.559Z,98093.44
2023-03-21T22:09:25.737Z,98092.53
2023-03-21T22:11:30.602Z,98088.38
2023-03-21T22:13:35.503Z,98088.66
2023-03-21T22:15:40.308Z,98090.22
2023-03-21T22:17:45.263Z,98084.09
2023-03-21T22:20:04.696Z,98079.63
2023-03-21T22:22:10.845Z,98083.91
2023-03-21T22:24:15.708Z,98075.25
2023-03-21T22:26:23.317Z,98074.41
2023-03-21T22:28:28.372Z,98077.09
2023-03-21T22:30:33.114Z,98079.28
2023-03-21T22:32:39.428Z,98073.38
2023-03-21T22:34:44.534Z,98069.94
2023-03-21T22:36:50.421Z,98071.13
2023-03-21T22:38:55.234Z,98070.28
2023-03-21T22:41:01.384Z,98076.41
2023-03-21T22:43:09.019Z,98079.88
2023-03-21T22:45:17.613Z,98075.72
2023-03-21T22:47:25.519Z,98090.56
2023-03-21T22:49:31.874Z,98091.59
2023-03-21T22:51:36.882Z,98089.13
2023-03-21T22:53:41.775Z,98091.91
2023-03-21T22:55:46.624Z,98096.47
2023-03-21T22:57:51.476Z,98104.56
2023-03-21T22:59:59.054Z,98101.28
2023-03-21T23:02:03.888Z,98093.50
2023-03-21T23:04:09.665Z,98094.44
2023-03-21T23:06:14.978Z,98100.50
2023-03-21T23:11:34.264Z,98095.56
2023-03-21T23:13:41.392Z,98095.72
2023-03-21T23:15:48.924Z,98087.00
2023-03-21T23:17:53.932Z,98093.19
2023-03-21T23:19:59.060Z,98094.94
2023-03-21T23:22:04.015Z,98106.47
2023-03-21T23:24:10.750Z,98102.19
2023-03-21T23:26:16.089Z,98091.91
2023-03-21T23:28:21.004Z,98097.06
2023-03-21T23:30:25.798Z,98100.41
2023-03-21T23:32:34.206Z,98095.03
2023-03-21T23:34:39.054Z,98100.19
2023-03-21T23:36:43.976Z,98096.63
2023-03-21T23:38:50.380Z,98090.56
2023-03-21T23:40:57.160Z,98090.63
2023-03-21T23:43:02.403Z,98089.06
2023-03-21T23:45:08.370Z,98088.19
2023-03-21T23:47:13.139Z,98087.34
2023-03-21T23:49:20.601Z,98087.34
2023-03-21T23:51:25.518Z,98077.91
2023-03-21T23:53:30.288Z,98087.78
2023-03-21T23:55:35.123Z,98077.63
2023-03-21T23:57:41.914Z,98085.81
2023-03-21T23:59:47.193Z,98083.28
